Strona główna
METAR-TAF:

METAR-TAF

Lotnisko :

Newport State Airport

Newport, Rhode Island, Stany Zjednoczone

Szerokość geograficzna: 41-31-48N, Długość geograficzna: 071-17-01W, wysokość: 52 m

Aktualna obserwacja pogody

Raport powstał 56 minut temu, godzina 09:53 UTC
Wiatr 6 kt od zachód
Temperatura 1°C
Wilgotność 64%
Ciśnienie 1017 hPa
Widzialność: 16.1 km
bezchmurnie

METAR: KUUU 210953Z AUTO 28006KT 10SM CLR 01/M05 A3002 RMK AO2 SLP165 T00061050

czas: 05:49 (10:49 UTC)


TAF: brakujący

Obserwacja i prognoza pogody dla ponad 4000 lotnisk (raport METAR i TAF).

Dostępne stacje oznaczono żółtymi i czerwonymi punktami na mapie.

Najedź kursorem aby zobaczyć nazwę stacji.

Kliknij aby zobaczyć obserwacje i prognozy pogody.

Aby zmienić mapę: kliknij na zielony przycisk z czarnym krzyżykiem, aby powiększyć; na zielony przycisk z myślnikiem, aby pomniejszyć; na zielone strzałki, aby przejść do map sąsiednich.


METAR-TAF: